Mustafa Sofuoglu — TCOJ7 — position and weather

sailwx.info

Track history (hours):
 
Tides and Currents Weather Stations Pressure Air Temp Water Temp Dewpoint Dewpoint Depression Visibility Wind Speed Wind Dir Waves Ship Positions

Mustafa Sofuoglu

Last reported at 2014-Aug-23 03:31 UTC. Time now 2014-Aug-23 05:33 UTC.
Position N 40°45' E 029°31'.

Length 106 m; draft 7 m.

Type: Cargo ship. MMSI: 271000831.

Date/timePositionNaut miles runAvg speedWind from/ knotsBaromVisibWave heightAir tempDewpointWater temp
2014-Aug-23 03:31N 40°45' E 029°31'0 0.0
2014-Aug-21 18:04N 40°46' E 029°31'4 7.6
2014-Aug-21 17:33N 40°45' E 029°26'1212.2
2014-Aug-21 16:33N 40°43' E 029°10'1212.3
2014-Aug-21 15:33N 40°43' E 028°54'1212.3
2014-Aug-21 14:33N 40°43' E 028°38'1212.6
2014-Aug-21 13:33N 40°43' E 028°21'1312.6
2014-Aug-21 12:33N 40°44' E 028°05'1612.5
2014-Aug-21 11:14N 40°43' E 027°43'4812.3
2014-Aug-21 07:18N 40°25' E 026°44'2211.2
2014-Aug-21 05:19N 40°09' E 026°23'19 9.8
2014-Aug-21 03:25N 39°55' E 026°07'1111.8
2014-Aug-21 02:31N 39°45' E 026°04'2912.5
2014-Aug-21 00:13N 39°18' E 025°50'912.8
2014-Aug-20 23:31N 39°10' E 025°48'1212.9
2014-Aug-20 22:34N 38°58' E 025°54'6212.4
2014-Aug-20 17:33N 37°60' E 026°21'1212.0
2014-Aug-20 16:33N 37°49' E 026°28'1612.0
2014-Aug-20 15:15N 37°36' E 026°38'811.5
2014-Aug-20 14:33N 37°29' E 026°44'1211.8
2014-Aug-20 13:33N 37°20' E 026°53'1211.9
2014-Aug-20 12:33N 37°10' E 027°01'1212.0
2014-Aug-20 11:32N 36°60' E 027°10'  
2014-Aug-16 03:28N 34°50' E 035°03'2713.8
2014-Aug-16 01:31N 34°24' E 034°53'1413.6
2014-Aug-16 00:30N 34°11' E 034°48'1313.6
2014-Aug-15 23:33N 33°59' E 034°44'1413.6
2014-Aug-15 22:33N 33°45' E 034°41'1413.6
2014-Aug-15 21:32N 33°32' E 034°39'5313.2
2014-Aug-15 17:33N 32°40' E 034°30'1312.7
2014-Aug-15 16:33N 32°27' E 034°27'1312.8
2014-Aug-15 15:30N 32°14' E 034°25'1212.7
2014-Aug-15 14:33N 32°02' E 034°23'1110.2
2014-Aug-15 13:30N 31°53' E 034°30'  
Track history (hours):
 
Tides and Currents Weather Stations Pressure Air Temp Water Temp Dewpoint Dewpoint Depression Visibility Wind Speed Wind Dir Waves Ship Positions

Mustafa Sofuoglu

Last reported at 2014-Aug-23 03:31 UTC. Time now 2014-Aug-23 05:33 UTC.
Position N 40°45' E 029°31'.

Length 106 m; draft 7 m.

Type: Cargo ship. MMSI: 271000831.

Date/timePositionNaut miles runAvg speedWind from/ knotsBaromVisibWave heightAir tempDewpointWater temp
2014-Aug-23 03:31N 40°45' E 029°31'0 0.0
2014-Aug-21 18:04N 40°46' E 029°31'4 7.6
2014-Aug-21 17:33N 40°45' E 029°26'1212.2
2014-Aug-21 16:33N 40°43' E 029°10'1212.3
2014-Aug-21 15:33N 40°43' E 028°54'1212.3
2014-Aug-21 14:33N 40°43' E 028°38'1212.6
2014-Aug-21 13:33N 40°43' E 028°21'1312.6
2014-Aug-21 12:33N 40°44' E 028°05'1612.5
2014-Aug-21 11:14N 40°43' E 027°43'4812.3
2014-Aug-21 07:18N 40°25' E 026°44'2211.2
2014-Aug-21 05:19N 40°09' E 026°23'19 9.8
2014-Aug-21 03:25N 39°55' E 026°07'1111.8
2014-Aug-21 02:31N 39°45' E 026°04'2912.5
2014-Aug-21 00:13N 39°18' E 025°50'912.8
2014-Aug-20 23:31N 39°10' E 025°48'1212.9
2014-Aug-20 22:34N 38°58' E 025°54'6212.4
2014-Aug-20 17:33N 37°60' E 026°21'1212.0
2014-Aug-20 16:33N 37°49' E 026°28'1612.0
2014-Aug-20 15:15N 37°36' E 026°38'811.5
2014-Aug-20 14:33N 37°29' E 026°44'1211.8
2014-Aug-20 13:33N 37°20' E 026°53'1211.9
2014-Aug-20 12:33N 37°10' E 027°01'1212.0
2014-Aug-20 11:32N 36°60' E 027°10'  
2014-Aug-16 03:28N 34°50' E 035°03'2713.8
2014-Aug-16 01:31N 34°24' E 034°53'1413.6
2014-Aug-16 00:30N 34°11' E 034°48'1313.6
2014-Aug-15 23:33N 33°59' E 034°44'1413.6
2014-Aug-15 22:33N 33°45' E 034°41'1413.6
2014-Aug-15 21:32N 33°32' E 034°39'5313.2
2014-Aug-15 17:33N 32°40' E 034°30'1312.7
2014-Aug-15 16:33N 32°27' E 034°27'1312.8
2014-Aug-15 15:30N 32°14' E 034°25'1212.7
2014-Aug-15 14:33N 32°02' E 034°23'1110.2
2014-Aug-15 13:30N 31°53' E 034°30'  

Dump ship's entire track history